Time;durP1;ratioP1;P1;durP2;ratioP2;P2;SDS_P1;SDS_P2;PMS_P1;PMS_P2;Temp;Humidity;BMP_temperature;BMP_pressure;BME280_temperature;BME280_humidity;BME280_pressure;Samples;Min_cycle;Max_cycle;Signal;HPM_P1;HPM_P2
2022/09/17 00:00:22;;;;;;;;;;;;;;;18.62;50.39;98538.03;5075314;28;19920;-50
2022/09/17 00:02:54;;;;;;;;;;;;;;;18.51;50.67;98545.16;5075315;28;19917;-50
2022/09/17 00:05:20;;;;;;;;;;;;;;;18.45;50.63;98543.50;5075195;28;19917;-50
2022/09/17 00:07:45;;;;;;;;;;;;;;;18.39;50.97;98549.03;5057236;28;19940;-50
2022/09/17 00:10:11;;;;;;;;;;;;;;;18.40;51.01;98554.09;5057181;28;20394;-50
2022/09/17 00:12:36;;;;;;;;;;;;;;;18.44;50.86;98543.75;5057118;28;20066;-50
2022/09/17 00:15:02;;;;;;;;;;;;;;;18.37;50.53;98541.28;5057125;28;20018;-50
2022/09/17 00:17:27;;;;;;;;;;;;;;;18.18;50.76;98548.88;5074945;28;20066;-50
2022/09/17 00:19:53;;;;;;;;;;;;;;;17.91;51.26;98539.09;5074954;28;19973;-50
2022/09/17 00:22:18;;;;;;;;;;;;;;;17.77;51.53;98548.47;5056905;28;19917;-50
2022/09/17 00:24:43;;;;;;;;;;;;;;;17.54;51.88;98552.19;5074786;28;19917;-51
2022/09/17 00:27:09;;;;;;;;;;;;;;;17.54;52.40;98553.00;5074783;28;19927;-50
2022/09/17 00:29:34;;;;;;;;;;;;;;;17.52;52.17;98565.72;5074631;28;19920;-51
2022/09/17 00:32:00;;;;;;;;;;;;;;;17.31;52.77;98555.94;5040158;28;19917;-50
2022/09/17 00:34:25;;;;;;;;;;;;;;;17.10;53.70;98549.56;5056764;28;19916;-51
2022/09/17 00:36:51;;;;;;;;;;;;;;;17.18;53.51;98551.78;5074654;28;19920;-51
2022/09/17 00:39:16;;;;;;;;;;;;;;;17.14;53.48;98555.97;5074720;28;20303;-51
2022/09/17 00:41:42;;;;;;;;;;;;;;;17.07;53.33;98548.22;5056549;28;20007;-51
2022/09/17 00:44:27;;;;;;;;;;;;;;;16.99;53.71;98556.59;5056649;28;19916;-50
2022/09/17 00:46:52;;;;;;;;;;;;;;;16.84;53.98;98557.19;5074508;28;19923;-50
2022/09/17 00:49:20;;;;;;;;;;;;;;;16.67;54.24;98551.88;5074423;28;19920;-49
2022/09/17 00:51:51;;;;;;;;;;;;;;;16.63;54.42;98552.63;5055149;28;19924;-50
2022/09/17 00:54:18;;;;;;;;;;;;;;;16.60;54.33;98558.38;5074405;28;20417;-51
2022/09/17 00:56:43;;;;;;;;;;;;;;;16.50;54.42;98554.56;5074285;28;19920;-50
2022/09/17 00:59:13;;;;;;;;;;;;;;;16.46;54.28;98560.56;5056360;28;19916;-51
2022/09/17 01:01:39;;;;;;;;;;;;;;;16.41;55.33;98566.59;5074255;28;19916;-50
2022/09/17 01:04:04;;;;;;;;;;;;;;;16.44;54.75;98563.47;5056124;28;19917;-49
2022/09/17 01:06:33;;;;;;;;;;;;;;;16.33;54.66;98567.78;5056204;28;19923;-51
2022/09/17 01:09:05;;;;;;;;;;;;;;;16.21;55.03;98564.41;5074107;28;20005;-50
2022/09/17 01:11:55;;;;;;;;;;;;;;;16.17;55.21;98564.09;5074108;28;19916;-51
2022/09/17 01:14:24;;;;;;;;;;;;;;;16.16;55.07;98557.19;5056103;28;19972;-50
2022/09/17 01:17:15;;;;;;;;;;;;;;;16.28;55.61;98562.44;5055908;28;19917;-50
2022/09/17 01:19:59;;;;;;;;;;;;;;;16.51;55.04;98564.09;5032808;28;19917;-51
2022/09/17 01:22:32;;;;;;;;;;;;;;;16.52;54.76;98573.66;5073776;28;19916;-50
2022/09/17 01:25:21;;;;;;;;;;;;;;;16.42;54.83;98573.50;5073726;28;20401;-50
2022/09/17 01:28:06;;;;;;;;;;;;;;;16.18;55.74;98571.00;5073491;28;19988;-51
2022/09/17 01:30:43;;;;;;;;;;;;;;;16.13;56.25;98584.13;5073674;28;19962;-51
2022/09/17 01:33:12;;;;;;;;;;;;;;;16.09;56.43;98583.00;5073703;28;19916;-50
2022/09/17 01:35:53;;;;;;;;;;;;;;;16.06;56.54;98583.50;5055601;28;20386;-51
2022/09/17 01:38:25;;;;;;;;;;;;;;;16.13;56.37;98580.69;5073534;28;19917;-51
2022/09/17 01:41:01;;;;;;;;;;;;;;;15.99;56.28;98590.78;5073358;28;20014;-50
2022/09/17 01:43:32;;;;;;;;;;;;;;;15.96;56.64;98586.78;5073405;28;19923;-51
2022/09/17 01:46:01;;;;;;;;;;;;;;;15.93;56.34;98579.28;5073661;28;20015;-51
2022/09/17 01:48:30;;;;;;;;;;;;;;;15.82;56.48;98577.53;5073363;28;19916;-51
2022/09/17 01:51:03;;;;;;;;;;;;;;;15.81;56.45;98575.09;5073262;28;19924;-50
2022/09/17 01:53:44;;;;;;;;;;;;;;;15.73;57.11;98568.34;5073294;28;20007;-51
2022/09/17 01:56:13;;;;;;;;;;;;;;;15.74;57.20;98568.13;5055199;28;19948;-50
2022/09/17 01:58:43;;;;;;;;;;;;;;;15.87;57.23;98564.38;5055147;28;20413;-51
2022/09/17 02:01:11;;;;;;;;;;;;;;;15.92;56.59;98555.72;5073355;28;19925;-52
2022/09/17 02:03:41;;;;;;;;;;;;;;;15.87;57.01;98563.56;5054586;28;20011;-51
2022/09/17 02:06:13;;;;;;;;;;;;;;;15.91;57.27;98562.84;5055128;28;19932;-50
2022/09/17 02:08:38;;;;;;;;;;;;;;;15.97;57.08;98569.84;5073153;28;19916;-50
2022/09/17 02:11:06;;;;;;;;;;;;;;;16.01;56.76;98572.81;5072856;28;20409;-51
2022/09/17 02:13:36;;;;;;;;;;;;;;;16.13;56.80;98575.41;5072809;28;19999;-50
2022/09/17 02:16:07;;;;;;;;;;;;;;;16.33;56.78;98574.94;5054833;28;19916;-51
2022/09/17 02:18:36;;;;;;;;;;;;;;;16.48;56.64;98577.00;5072721;28;19923;-51
2022/09/17 02:21:07;;;;;;;;;;;;;;;16.58;56.23;98588.59;5072655;28;19923;-51
2022/09/17 02:23:35;;;;;;;;;;;;;;;16.62;55.98;98583.63;5072640;28;20398;-51
2022/09/17 02:26:09;;;;;;;;;;;;;;;16.69;55.96;98583.44;5054683;28;20656;-50
2022/09/17 02:28:41;;;;;;;;;;;;;;;16.75;55.33;98579.81;5072389;28;19920;-51
2022/09/17 02:31:06;;;;;;;;;;;;;;;16.67;55.50;98582.88;5072539;28;19952;-51
2022/09/17 02:33:33;;;;;;;;;;;;;;;16.67;55.61;98585.53;5054547;28;20361;-50
2022/09/17 02:35:58;;;;;;;;;;;;;;;16.62;55.62;98591.56;5054566;28;19927;-51
2022/09/17 02:38:24;;;;;;;;;;;;;;;16.46;56.01;98598.47;5054526;28;19916;-51
2022/09/17 02:40:53;;;;;;;;;;;;;;;16.54;55.89;98603.38;5072661;28;20321;-50
2022/09/17 02:43:24;;;;;;;;;;;;;;;16.59;55.71;98613.22;5072578;28;19948;-51
2022/09/17 02:45:50;;;;;;;;;;;;;;;16.66;55.93;98623.66;5072332;28;20016;-50
2022/09/17 02:48:24;;;;;;;;;;;;;;;16.80;55.42;98619.63;5054373;28;19960;-50
2022/09/17 02:51:01;;;;;;;;;;;;;;;16.80;55.35;98610.88;5054333;28;19928;-50
2022/09/17 02:53:34;;;;;;;;;;;;;;;16.83;55.45;98613.09;5072335;28;20309;-50
2022/09/17 02:56:02;;;;;;;;;;;;;;;16.83;55.02;98613.09;5072229;28;19917;-50
2022/09/17 02:58:33;;;;;;;;;;;;;;;16.74;55.05;98616.13;5054208;28;19920;-50
2022/09/17 03:01:02;;;;;;;;;;;;;;;16.56;55.31;98617.16;5072258;28;19916;-50
2022/09/17 03:03:39;;;;;;;;;;;;;;;16.44;55.43;98618.28;5054068;28;19917;-50
2022/09/17 03:06:05;;;;;;;;;;;;;;;16.23;55.94;98617.13;5072137;28;19917;-50
2022/09/17 03:08:39;;;;;;;;;;;;;;;16.10;56.22;98615.59;5054070;28;19917;-50
2022/09/17 03:11:09;;;;;;;;;;;;;;;15.92;56.67;98616.59;5054360;28;19926;-51
2022/09/17 03:13:35;;;;;;;;;;;;;;;15.77;57.29;98619.75;5072072;28;19916;-50
2022/09/17 03:16:04;;;;;;;;;;;;;;;15.67;57.68;98627.47;5056137;28;20007;-50
2022/09/17 03:18:29;;;;;;;;;;;;;;;15.55;57.77;98624.84;5058194;28;19924;-51
2022/09/17 03:20:54;;;;;;;;;;;;;;;15.45;58.16;98629.94;5076141;28;19916;-50
2022/09/17 03:23:20;;;;;;;;;;;;;;;15.33;58.65;98629.94;5076019;28;19920;-50
2022/09/17 03:25:45;;;;;;;;;;;;;;;15.33;58.79;98633.41;5058053;28;19969;-50
2022/09/17 03:28:11;;;;;;;;;;;;;;;15.33;58.89;98632.59;5075718;28;19924;-51
2022/09/17 03:30:36;;;;;;;;;;;;;;;15.28;58.87;98628.00;5057876;28;19916;-50
2022/09/17 03:33:02;;;;;;;;;;;;;;;15.16;58.93;98635.16;5057916;28;19962;-49
2022/09/17 03:35:27;;;;;;;;;;;;;;;15.14;59.21;98645.16;5057801;28;19920;-50
2022/09/17 03:37:56;;;;;;;;;;;;;;;15.12;59.15;98641.94;5075843;28;20002;-50
2022/09/17 03:40:21;;;;;;;;;;;;;;;15.00;59.29;98651.72;5057906;28;19922;-50
2022/09/17 03:42:46;;;;;;;;;;;;;;;14.88;59.85;98649.06;5075739;28;19923;-50
2022/09/17 03:45:12;;;;;;;;;;;;;;;14.86;60.01;98649.28;5075639;28;19916;-50
2022/09/17 03:47:37;;;;;;;;;;;;;;;14.73;59.91;98646.88;5075637;28;19946;-50
2022/09/17 03:50:04;;;;;;;;;;;;;;;14.58;60.49;98642.81;5057561;28;19967;-50
2022/09/17 03:52:29;;;;;;;;;;;;;;;14.57;60.94;98646.50;5075526;28;19916;-50
2022/09/17 03:54:55;;;;;;;;;;;;;;;14.61;60.96;98652.13;5057463;28;19966;-51
2022/09/17 03:57:21;;;;;;;;;;;;;;;14.64;60.90;98643.75;5057418;28;20392;-51
2022/09/17 03:59:47;;;;;;;;;;;;;;;14.65;60.90;98652.47;5075309;28;19922;-50
2022/09/17 04:02:13;;;;;;;;;;;;;;;14.56;61.25;98655.44;5057694;28;19923;-50
2022/09/17 04:04:39;;;;;;;;;;;;;;;14.55;61.23;98648.53;5057229;28;19917;-51
2022/09/17 04:07:07;;;;;;;;;;;;;;;14.51;61.19;98655.28;5075245;28;20017;-50
2022/09/17 04:09:33;;;;;;;;;;;;;;;14.42;61.34;98650.56;5040621;28;20424;-50
2022/09/17 04:11:58;;;;;;;;;;;;;;;14.33;61.66;98655.38;5075138;28;19921;-50
2022/09/17 04:14:23;;;;;;;;;;;;;;;14.28;61.91;98657.88;5075107;28;19943;-51
2022/09/17 04:16:49;;;;;;;;;;;;;;;14.18;61.93;98668.97;5075049;28;19958;-50
2022/09/17 04:19:14;;;;;;;;;;;;;;;14.07;62.12;98673.16;5075013;28;19963;-51
2022/09/17 04:21:39;;;;;;;;;;;;;;;13.96;62.71;98677.38;5074943;28;20042;-51
2022/09/17 04:24:05;;;;;;;;;;;;;;;13.88;63.02;98679.50;5074895;28;20294;-50
2022/09/17 04:26:30;;;;;;;;;;;;;;;13.83;63.35;98677.53;5056720;28;20343;-50
2022/09/17 04:28:56;;;;;;;;;;;;;;;13.78;63.41;98680.84;5074664;28;20341;-51
2022/09/17 04:31:23;;;;;;;;;;;;;;;13.96;63.45;98677.38;5074831;28;19928;-51
2022/09/17 04:33:49;;;;;;;;;;;;;;;14.11;62.93;98676.97;5074732;28;19916;-50
2022/09/17 04:36:15;;;;;;;;;;;;;;;14.10;62.80;98674.56;5074693;28;19917;-51
2022/09/17 04:38:40;;;;;;;;;;;;;;;14.06;62.84;98687.38;5074589;28;19975;-50
2022/09/17 04:41:06;;;;;;;;;;;;;;;13.98;62.66;98685.06;5040089;28;20011;-51
2022/09/17 04:43:32;;;;;;;;;;;;;;;13.91;62.92;98689.63;5074532;28;19948;-50
2022/09/17 04:45:57;;;;;;;;;;;;;;;13.83;63.15;98692.56;5074551;28;19962;-50
2022/09/17 04:48:23;;;;;;;;;;;;;;;13.79;63.54;98698.25;5074554;28;19970;-51
2022/09/17 04:50:48;;;;;;;;;;;;;;;13.90;63.75;98698.53;5074704;28;19916;-51
2022/09/17 04:53:14;;;;;;;;;;;;;;;13.91;63.60;98695.69;5056416;28;20282;-51
2022/09/17 04:55:39;;;;;;;;;;;;;;;13.89;63.31;98689.03;5056419;28;19924;-51
2022/09/17 04:58:05;;;;;;;;;;;;;;;14.02;63.45;98703.88;5074310;28;19974;-51
2022/09/17 05:00:30;;;;;;;;;;;;;;;14.05;62.66;98700.81;5074291;28;20360;-50
2022/09/17 05:02:56;;;;;;;;;;;;;;;13.95;62.95;98699.50;5074259;28;19923;-50
2022/09/17 05:05:22;;;;;;;;;;;;;;;13.90;62.91;98690.63;5056038;28;19939;-50
2022/09/17 05:07:47;;;;;;;;;;;;;;;13.87;63.29;98705.06;5056171;28;19973;-51
2022/09/17 05:10:14;;;;;;;;;;;;;;;13.83;63.42;98698.63;5074072;28;20007;-51
2022/09/17 05:12:39;;;;;;;;;;;;;;;13.82;63.37;98704.13;5074056;28;20309;-51
2022/09/17 05:15:05;;;;;;;;;;;;;;;13.71;63.23;98706.47;5073962;28;20007;-51
2022/09/17 05:17:31;;;;;;;;;;;;;;;13.67;63.87;98707.94;5073893;28;19916;-50
2022/09/17 05:19:56;;;;;;;;;;;;;;;13.75;63.83;98712.13;5055925;28;19916;-50
2022/09/17 05:22:22;;;;;;;;;;;;;;;13.78;63.76;98709.84;5073887;28;20305;-51
2022/09/17 05:24:47;;;;;;;;;;;;;;;13.81;63.76;98708.59;5073740;28;20366;-49
2022/09/17 05:27:13;;;;;;;;;;;;;;;13.89;63.65;98739.97;5055766;28;19916;-51
2022/09/17 05:29:38;;;;;;;;;;;;;;;13.83;63.26;98737.41;5073566;28;20007;-50
2022/09/17 05:32:04;;;;;;;;;;;;;;;13.77;63.44;98745.16;5073626;28;19920;-50
2022/09/17 05:34:30;;;;;;;;;;;;;;;13.84;63.69;98755.63;5073617;28;19924;-50
2022/09/17 05:36:55;;;;;;;;;;;;;;;14.15;63.56;98754.69;5073550;28;19916;-50
2022/09/17 05:39:24;;;;;;;;;;;;;;;14.73;62.67;98761.25;5054870;28;20301;-51
2022/09/17 05:41:51;;;;;;;;;;;;;;;15.08;61.55;98765.81;5073472;28;19916;-50
2022/09/17 05:44:16;;;;;;;;;;;;;;;15.18;61.19;98767.91;5073278;28;19923;-50
2022/09/17 05:46:42;;;;;;;;;;;;;;;15.35;60.56;98760.09;5055283;28;19916;-51
2022/09/17 05:49:07;;;;;;;;;;;;;;;15.45;60.19;98765.59;5055342;28;19917;-49
2022/09/17 05:51:32;;;;;;;;;;;;;;;15.41;59.27;98776.88;5073251;28;19916;-49
2022/09/17 05:53:58;;;;;;;;;;;;;;;15.13;59.45;98775.69;5055265;28;19917;-50
2022/09/17 05:56:23;;;;;;;;;;;;;;;14.93;59.58;98778.66;5073166;28;19967;-48
2022/09/17 05:58:48;;;;;;;;;;;;;;;14.83;59.77;98779.22;5073037;28;19917;-48
2022/09/17 06:01:15;;;;;;;;;;;;;;;14.73;60.08;98768.38;5073063;28;19923;-48
2022/09/17 06:03:41;;;;;;;;;;;;;;;14.83;60.33;98773.09;5072963;28;20058;-49
2022/09/17 06:06:06;;;;;;;;;;;;;;;14.99;59.72;98780.41;5072989;28;19960;-48
2022/09/17 06:08:35;;;;;;;;;;;;;;;14.96;59.36;98780.84;5072921;28;20460;-49
2022/09/17 06:11:04;;;;;;;;;;;;;;;15.10;59.57;98792.81;5054939;28;19916;-50
2022/09/17 06:13:30;;;;;;;;;;;;;;;15.22;58.98;98782.28;5071544;28;20417;-50
2022/09/17 06:15:55;;;;;;;;;;;;;;;15.22;58.85;98789.41;5054851;28;19917;-49
2022/09/17 06:18:20;;;;;;;;;;;;;;;15.39;58.68;98785.03;5054828;28;19917;-50
2022/09/17 06:20:53;;;;;;;;;;;;;;;15.48;58.21;98785.53;5054813;28;19944;-50
2022/09/17 06:23:18;;;;;;;;;;;;;;;15.70;57.69;98791.03;5072614;28;20390;-50
2022/09/17 06:25:49;;;;;;;;;;;;;;;15.70;56.58;98783.09;5072661;28;19926;-50
2022/09/17 06:28:17;;;;;;;;;;;;;;;15.82;56.86;98797.16;5072443;28;19967;-50
2022/09/17 06:30:46;;;;;;;;;;;;;;;16.63;56.95;98791.09;5054654;28;19920;-51
2022/09/17 06:33:11;;;;;;;;;;;;;;;18.12;54.76;98794.22;5072584;28;19917;-51
2022/09/17 06:35:37;;;;;;;;;;;;;;;19.39;51.58;98798.44;5054502;28;19924;-52
2022/09/17 06:38:05;;;;;;;;;;;;;;;20.37;48.57;98805.13;5072468;28;20007;-49
2022/09/17 06:40:31;;;;;;;;;;;;;;;20.97;45.64;98802.88;5072461;28;20011;-47
2022/09/17 06:42:58;;;;;;;;;;;;;;;21.64;42.74;98793.81;5072548;28;20007;-46
2022/09/17 06:45:24;;;;;;;;;;;;;;;21.90;41.09;98791.06;5072277;28;19924;-46
2022/09/17 06:47:50;;;;;;;;;;;;;;;21.91;39.96;98781.97;5054408;28;19965;-49
2022/09/17 06:50:15;;;;;;;;;;;;;;;22.10;39.97;98782.19;5072210;28;20301;-47
2022/09/17 06:52:51;;;;;;;;;;;;;;;22.32;39.08;98781.84;5054323;28;19923;-46
2022/09/17 06:55:16;;;;;;;;;;;;;;;22.58;38.55;98781.69;5072324;28;19916;-47
2022/09/17 06:57:42;;;;;;;;;;;;;;;22.79;37.75;98782.38;5072250;28;20309;-47
2022/09/17 07:00:08;;;;;;;;;;;;;;;23.18;37.85;98782.41;5072241;28;19920;-48
2022/09/17 07:02:34;;;;;;;;;;;;;;;23.61;36.58;98773.69;5072065;28;19927;-49
2022/09/17 07:04:59;;;;;;;;;;;;;;;23.84;36.17;98772.13;5072130;28;19917;-48
2022/09/17 07:07:24;;;;;;;;;;;;;;;24.21;35.84;98781.34;5054218;28;20401;-49
2022/09/17 07:09:51;;;;;;;;;;;;;;;24.21;34.42;98789.41;5054128;28;20329;-49
2022/09/17 07:12:16;;;;;;;;;;;;;;;24.04;35.04;98793.31;5072272;28;19917;-48
2022/09/17 07:14:42;;;;;;;;;;;;;;;24.24;34.45;98786.13;5072051;28;20412;-49
2022/09/17 07:17:10;;;;;;;;;;;;;;;24.05;33.74;98783.41;5072059;28;20449;-48
2022/09/17 07:19:35;;;;;;;;;;;;;;;23.63;34.36;98771.53;5072262;28;19916;-48
2022/09/17 07:22:01;;;;;;;;;;;;;;;23.33;34.52;98766.16;5053979;28;20279;-48
2022/09/17 07:24:26;;;;;;;;;;;;;;;23.35;34.83;98776.59;5071930;28;19920;-49
2022/09/17 07:26:52;;;;;;;;;;;;;;;23.27;34.71;98786.03;5071960;28;19916;-49
2022/09/17 07:29:17;;;;;;;;;;;;;;;23.16;34.76;98771.16;5071711;28;19942;-47
2022/09/17 07:31:43;;;;;;;;;;;;;;;23.03;35.01;98791.31;5053872;28;20375;-48
2022/09/17 07:34:09;;;;;;;;;;;;;;;23.42;34.96;98798.53;5071865;28;19960;-48
2022/09/17 07:36:35;;;;;;;;;;;;;;;23.78;33.20;98797.38;5071803;28;19959;-48
2022/09/17 07:39:00;;;;;;;;;;;;;;;23.73;33.16;98792.84;5071843;28;20377;-47
2022/09/17 07:41:25;;;;;;;;;;;;;;;23.59;33.57;98803.44;5071768;28;19966;-47
2022/09/17 07:43:53;;;;;;;;;;;;;;;23.85;32.96;98795.97;5053782;28;19917;-48
2022/09/17 07:46:19;;;;;;;;;;;;;;;24.15;32.59;98802.06;5072032;28;20375;-48
2022/09/17 07:48:46;;;;;;;;;;;;;;;24.62;32.44;98803.06;5071695;28;19965;-46
2022/09/17 07:51:15;;;;;;;;;;;;;;;24.84;31.49;98799.81;5071665;28;19932;-47
2022/09/17 07:53:41;;;;;;;;;;;;;;;24.88;30.92;98798.13;5071928;28;20015;-47
2022/09/17 07:56:06;;;;;;;;;;;;;;;24.72;31.25;98799.47;5072165;28;20394;-46
2022/09/17 07:58:33;;;;;;;;;;;;;;;24.73;30.84;98809.13;5053666;28;20496;-48
2022/09/17 08:01:21;;;;;;;;;;;;;;;25.00;31.07;98810.31;5071806;28;19916;-49
2022/09/17 08:03:49;;;;;;;;;;;;;;;25.47;30.62;98803.13;5075344;28;19916;-49
2022/09/17 08:06:16;;;;;;;;;;;;;;;25.73;30.09;98808.84;5075293;28;20394;-47
2022/09/17 08:08:41;;;;;;;;;;;;;;;26.15;29.54;98811.56;5075244;28;19917;-47
2022/09/17 08:11:11;;;;;;;;;;;;;;;26.84;29.63;98812.28;5075504;28;19940;-47
2022/09/17 08:13:36;;;;;;;;;;;;;;;27.49;28.02;98805.59;5075128;28;19944;-47
2022/09/17 08:16:04;;;;;;;;;;;;;;;27.76;27.75;98801.09;5075170;28;20386;-48
2022/09/17 08:18:30;;;;;;;;;;;;;;;27.77;27.03;98805.41;5075100;28;19920;-48
2022/09/17 08:20:57;;;;;;;;;;;;;;;27.55;26.70;98806.25;5056999;28;19916;-48
2022/09/17 08:23:23;;;;;;;;;;;;;;;27.74;26.70;98810.63;5074865;28;19923;-49
2022/09/17 08:25:52;;;;;;;;;;;;;;;28.22;26.56;98802.53;5074967;28;19917;-50
2022/09/17 08:28:17;;;;;;;;;;;;;;;28.84;26.13;98806.91;5074715;28;19925;-48
2022/09/17 08:30:43;;;;;;;;;;;;;;;29.44;25.43;98807.19;5056865;28;20394;-48
2022/09/17 08:33:08;;;;;;;;;;;;;;;29.70;24.69;98809.00;5074782;28;19916;-49
2022/09/17 08:35:34;;;;;;;;;;;;;;;30.01;24.16;98814.94;5074764;28;19921;-49
2022/09/17 08:37:59;;;;;;;;;;;;;;;30.14;22.96;98798.78;5074641;28;19921;-49
2022/09/17 08:40:27;;;;;;;;;;;;;;;29.16;22.98;98802.16;5074690;28;19939;-49
2022/09/17 08:43:00;;;;;;;;;;;;;;;28.55;23.78;98812.16;5074639;28;19920;-48
2022/09/17 08:45:26;;;;;;;;;;;;;;;28.45;24.12;98800.53;5074816;28;19917;-48
2022/09/17 08:47:54;;;;;;;;;;;;;;;28.25;23.80;98793.00;5074588;28;19920;-49
2022/09/17 08:50:31;;;;;;;;;;;;;;;27.70;24.52;98803.13;5074545;28;19974;-48
2022/09/17 08:53:20;;;;;;;;;;;;;;;27.27;25.01;98808.31;5056470;28;19916;-49
2022/09/17 08:55:50;;;;;;;;;;;;;;;27.34;24.72;98784.41;5074391;28;19924;-48
2022/09/17 08:58:22;;;;;;;;;;;;;;;27.03;25.05;98816.69;5056435;28;19952;-48
2022/09/17 09:00:47;;;;;;;;;;;;;;;27.05;25.23;98811.78;5074300;28;19924;-48
2022/09/17 09:03:20;;;;;;;;;;;;;;;27.36;25.64;98805.66;5074294;28;19916;-49
2022/09/17 09:05:51;;;;;;;;;;;;;;;27.44;25.75;98807.59;5074538;28;19916;-49
2022/09/17 09:08:24;;;;;;;;;;;;;;;26.82;25.90;98817.16;5074141;28;19917;-49
2022/09/17 09:10:55;;;;;;;;;;;;;;;25.90;26.76;98824.44;5074156;28;19921;-47
2022/09/17 09:13:22;;;;;;;;;;;;;;;25.08;27.94;98826.56;5072979;28;20011;-48
2022/09/17 09:16:11;;;;;;;;;;;;;;;25.76;28.29;98821.69;5074243;28;20003;-48
2022/09/17 09:18:39;;;;;;;;;;;;;;;26.41;27.01;98820.69;5074021;28;19916;-49
2022/09/17 09:21:23;;;;;;;;;;;;;;;25.95;27.16;98831.59;5073879;28;20003;-49
2022/09/17 09:23:49;;;;;;;;;;;;;;;25.56;28.00;98830.94;5073724;28;19959;-49
2022/09/17 09:26:14;;;;;;;;;;;;;;;25.93;27.93;98837.25;5073781;28;19967;-48
2022/09/17 09:28:52;;;;;;;;;;;;;;;25.74;27.13;98834.63;5073467;28;20394;-48
2022/09/17 09:31:21;;;;;;;;;;;;;;;25.02;27.73;98826.94;5073711;28;20401;-49
2022/09/17 09:33:46;;;;;;;;;;;;;;;24.59;28.55;98846.59;5073954;28;19916;-48
2022/09/17 09:36:14;;;;;;;;;;;;;;;25.15;28.75;98844.97;5073561;28;19916;-49
2022/09/17 09:38:42;;;;;;;;;;;;;;;26.33;27.43;98834.88;5073758;28;19920;-48
2022/09/17 09:41:15;;;;;;;;;;;;;;;26.40;25.90;98832.59;5055054;28;20473;-48
2022/09/17 09:43:51;;;;;;;;;;;;;;;26.07;27.17;98838.06;5055430;28;19959;-49
2022/09/17 09:46:37;;;;;;;;;;;;;;;26.48;26.28;98826.50;5073345;28;19994;-47
2022/09/17 09:49:08;;;;;;;;;;;;;;;25.63;26.38;98831.31;5044897;28;19916;-48
2022/09/17 09:51:40;;;;;;;;;;;;;;;25.62;26.73;98831.63;5055375;28;19924;-49
2022/09/17 09:54:18;;;;;;;;;;;;;;;25.54;26.79;98830.44;5073237;28;20050;-49
2022/09/17 09:56:46;;;;;;;;;;;;;;;25.71;27.17;98843.28;5073303;28;19921;-49
2022/09/17 09:59:12;;;;;;;;;;;;;;;26.41;26.67;98841.44;5073430;28;19924;-49
2022/09/17 10:01:40;;;;;;;;;;;;;;;27.05;25.65;98834.13;5073138;28;19939;-49
2022/09/17 10:04:25;;;;;;;;;;;;;;;27.70;24.92;98834.69;5054987;28;19927;-48
2022/09/17 10:07:08;;;;;;;;;;;;;;;28.39;24.17;98827.97;5073247;28;19939;-48
2022/09/17 10:09:35;;;;;;;;;;;;;;;28.48;23.21;98829.59;5055009;28;20222;-47
2022/09/17 10:12:01;;;;;;;;;;;;;;;28.54;23.05;98815.97;5073125;28;20013;-47
2022/09/17 10:14:28;;;;;;;;;;;;;;;28.17;23.16;98818.06;5072903;28;19986;-48
2022/09/17 10:17:23;;;;;;;;;;;;;;;27.65;23.71;98832.94;5054930;28;19916;-47
2022/09/17 10:20:00;;;;;;;;;;;;;;;27.14;24.74;98836.88;5059325;28;19952;-47
2022/09/17 10:22:45;;;;;;;;;;;;;;;26.82;25.07;98835.19;5072761;28;19982;-49
2022/09/17 10:25:39;;;;;;;;;;;;;;;27.42;25.08;98836.78;5072376;28;20382;-48
2022/09/17 10:28:21;;;;;;;;;;;;;;;28.29;23.61;98827.19;5059055;28;19928;-48
2022/09/17 10:30:57;;;;;;;;;;;;;;;28.19;23.75;98821.25;5072655;28;20019;-46
2022/09/17 10:33:32;;;;;;;;;;;;;;;28.44;23.99;98831.31;5054577;28;19921;-48
2022/09/17 10:36:05;;;;;;;;;;;;;;;27.94;23.94;98837.06;5072530;28;19920;-48
2022/09/17 10:38:31;;;;;;;;;;;;;;;25.96;25.27;98846.63;5072779;28;19982;-49
2022/09/17 10:41:10;;;;;;;;;;;;;;;25.65;26.36;98855.22;5072476;28;19920;-48
2022/09/17 10:43:35;;;;;;;;;;;;;;;26.34;25.48;98841.03;5054417;28;19923;-49
2022/09/17 10:46:01;;;;;;;;;;;;;;;27.07;24.94;98828.44;5072235;28;20302;-48
2022/09/17 10:48:31;;;;;;;;;;;;;;;27.39;24.34;98835.50;5072399;28;19942;-48
2022/09/17 10:50:57;;;;;;;;;;;;;;;27.45;24.13;98836.97;5072256;28;20438;-49
2022/09/17 10:53:24;;;;;;;;;;;;;;;27.38;23.32;98825.00;5072328;28;19921;-48
2022/09/17 10:56:12;;;;;;;;;;;;;;;27.34;24.25;98834.81;5072271;28;19969;-48
2022/09/17 10:58:47;;;;;;;;;;;;;;;27.78;23.32;98827.75;5046105;28;20401;-48
2022/09/17 11:01:15;;;;;;;;;;;;;;;27.70;23.13;98822.00;5072478;28;20410;-49
2022/09/17 11:03:41;;;;;;;;;;;;;;;27.68;23.61;98823.44;5072182;28;19916;-49
2022/09/17 11:06:14;;;;;;;;;;;;;;;27.86;23.33;98817.00;5072139;28;19999;-48
2022/09/17 11:08:39;;;;;;;;;;;;;;;27.39;23.39;98832.00;5054268;28;19924;-49
2022/09/17 11:11:09;;;;;;;;;;;;;;;26.66;24.17;98821.28;5072083;28;19916;-48
2022/09/17 11:13:44;;;;;;;;;;;;;;;26.43;25.35;98840.03;5054024;28;19955;-49
2022/09/17 11:16:19;;;;;;;;;;;;;;;27.39;25.07;98832.81;5054084;28;19960;-49
2022/09/17 11:18:52;;;;;;;;;;;;;;;27.56;24.25;98812.44;5054059;28;19925;-48
2022/09/17 11:21:18;;;;;;;;;;;;;;;27.35;24.02;98822.94;5054078;28;19923;-48
2022/09/17 11:23:55;;;;;;;;;;;;;;;26.53;24.59;98838.25;5072283;28;20289;-48
2022/09/17 11:26:59;;;;;;;;;;;;;;;25.98;25.18;98826.44;5071973;28;19974;-48
2022/09/17 11:29:27;;;;;;;;;;;;;;;25.72;25.74;98828.75;5009927;28;20403;-48
2022/09/17 11:31:55;;;;;;;;;;;;;;;26.39;25.64;98811.34;5010158;28;20395;-50
2022/09/17 11:34:21;;;;;;;;;;;;;;;26.64;24.93;98821.59;5010066;28;19957;-49
2022/09/17 11:36:58;;;;;;;;;;;;;;;26.94;25.03;98815.81;5011601;28;20343;-49
2022/09/17 11:39:31;;;;;;;;;;;;;;;26.99;23.96;98804.94;5013931;28;19928;-48
2022/09/17 11:42:00;;;;;;;;;;;;;;;26.45;23.75;98826.28;4997484;28;19964;-47
2022/09/17 11:44:38;;;;;;;;;;;;;;;25.91;24.26;98828.69;4997378;28;20009;-48
2022/09/17 11:47:09;;;;;;;;;;;;;;;25.71;25.47;98824.47;4997337;28;20379;-49
2022/09/17 11:49:40;;;;;;;;;;;;;;;26.13;25.24;98829.91;5013802;28;19922;-48
2022/09/17 11:52:12;;;;;;;;;;;;;;;26.59;25.24;98821.69;5013750;28;19967;-48
2022/09/17 11:54:40;;;;;;;;;;;;;;;26.75;24.87;98800.63;5013763;28;19960;-48
2022/09/17 11:57:12;;;;;;;;;;;;;;;26.43;24.90;98817.72;5013697;28;20007;-48
2022/09/17 11:59:41;;;;;;;;;;;;;;;26.51;25.06;98793.56;5019661;28;19983;-48
2022/09/17 12:02:22;;;;;;;;;;;;;;;26.36;25.06;98820.81;5035520;28;19917;-47
2022/09/17 12:05:00;;;;;;;;;;;;;;;26.54;24.91;98807.53;5035635;28;19924;-49
2022/09/17 12:07:29;;;;;;;;;;;;;;;26.66;24.66;98810.50;5034402;28;19921;-48
2022/09/17 12:09:59;;;;;;;;;;;;;;;26.43;24.63;98801.56;5035377;28;20425;-48
2022/09/17 12:12:26;;;;;;;;;;;;;;;26.34;24.89;98803.38;5034350;28;19925;-48
2022/09/17 12:15:02;;;;;;;;;;;;;;;26.17;25.54;98814.75;5034003;28;19917;-48
2022/09/17 12:17:36;;;;;;;;;;;;;;;26.40;25.81;98816.44;5035204;28;20410;-48
2022/09/17 12:20:09;;;;;;;;;;;;;;;26.95;24.88;98798.56;5033872;28;19921;-45
2022/09/17 12:22:38;;;;;;;;;;;;;;;26.87;24.83;98811.63;5033940;28;19921;-49
2022/09/17 12:25:05;;;;;;;;;;;;;;;27.05;24.32;98812.56;5034994;28;20279;-49
2022/09/17 12:27:42;;;;;;;;;;;;;;;27.16;24.97;98805.03;5035046;28;20382;-49
2022/09/17 12:30:12;;;;;;;;;;;;;;;27.61;24.32;98796.91;5035052;28;20306;-50
2022/09/17 12:32:53;;;;;;;;;;;;;;;28.20;24.36;98802.06;5033704;28;19917;-48
2022/09/17 12:35:26;;;;;;;;;;;;;;;28.32;23.72;98803.38;5034815;28;20000;-49
2022/09/17 12:38:00;;;;;;;;;;;;;;;28.07;23.56;98798.38;5034807;28;19921;-49
2022/09/17 12:40:44;;;;;;;;;;;;;;;27.77;23.53;98794.63;5033498;28;19926;-49
2022/09/17 12:43:27;;;;;;;;;;;;;;;27.37;23.79;98807.25;5035048;28;19957;-49
2022/09/17 12:45:58;;;;;;;;;;;;;;;26.96;24.83;98805.53;5034737;28;19953;-50
2022/09/17 12:48:36;;;;;;;;;;;;;;;27.17;25.14;98809.31;5033183;28;19967;-50
2022/09/17 12:51:21;;;;;;;;;;;;;;;27.07;24.44;98796.91;5034583;28;20307;-49
2022/09/17 12:54:05;;;;;;;;;;;;;;;26.73;24.76;98804.72;5034144;28;19917;-48
2022/09/17 12:56:49;;;;;;;;;;;;;;;26.45;24.58;98792.09;5034501;28;19925;-48
2022/09/17 12:59:18;;;;;;;;;;;;;;;25.96;24.70;98793.66;5034468;28;19921;-48